Terminal Aerodrome Forecast
Issued by NWS

Home | Current Version | Previous Version | Graphics & Text | Print | Product List | Glossary On
Versions: 1 2 3 4 5 6 7 8 9 10 11 12 13 14 15 16 17 18 19
000
FTUS43 KTOP 231738
TAFFOE
TAF
KFOE 231738Z 2318/2418 09012G21KT P6SM BKN110
     FM232300 09011KT P6SM SCT012 BKN110
     FM240500 35014G24KT P6SM BKN012
     FM240800 30015G23KT P6SM BKN012=

USA.gov is the U.S. government's official web portal to all federal, state and local government web resources and services.